sensor_id;sensor_type;location;lat;lon;timestamp;pressure;altitude;pressure_sealevel;temperature;humidity
44297;BME280;51842;47.450;8.654;2022-11-20T00:01:33;95148.16;;;1.89;100.00
44297;BME280;51842;47.450;8.654;2022-11-20T00:04:00;95147.28;;;1.95;100.00
44297;BME280;51842;47.450;8.654;2022-11-20T00:06:27;95155.88;;;2.02;100.00
44297;BME280;51842;47.450;8.654;2022-11-20T00:08:59;95155.78;;;2.09;100.00
44297;BME280;51842;47.450;8.654;2022-11-20T00:11:29;95151.72;;;2.13;100.00
44297;BME280;51842;47.450;8.654;2022-11-20T00:13:59;95159.28;;;2.21;100.00
44297;BME280;51842;47.450;8.654;2022-11-20T00:16:31;95159.97;;;2.28;100.00
44297;BME280;51842;47.450;8.654;2022-11-20T00:19:01;95158.88;;;2.36;100.00
44297;BME280;51842;47.450;8.654;2022-11-20T00:21:30;95157.41;;;2.40;100.00
44297;BME280;51842;47.450;8.654;2022-11-20T00:23:57;95162.22;;;2.43;100.00
44297;BME280;51842;47.450;8.654;2022-11-20T00:26:26;95160.53;;;2.49;100.00
44297;BME280;51842;47.450;8.654;2022-11-20T00:28:58;95160.88;;;2.52;100.00
44297;BME280;51842;47.450;8.654;2022-11-20T00:31:27;95167.28;;;2.57;100.00
44297;BME280;51842;47.450;8.654;2022-11-20T00:33:53;95168.00;;;2.64;100.00
44297;BME280;51842;47.450;8.654;2022-11-20T00:36:26;95167.09;;;2.70;100.00
44297;BME280;51842;47.450;8.654;2022-11-20T00:38:57;95166.06;;;2.71;100.00
44297;BME280;51842;47.450;8.654;2022-11-20T00:41:30;95161.41;;;2.73;100.00
44297;BME280;51842;47.450;8.654;2022-11-20T00:43:57;95170.88;;;2.74;100.00
44297;BME280;51842;47.450;8.654;2022-11-20T00:46:27;95167.81;;;2.77;100.00
44297;BME280;51842;47.450;8.654;2022-11-20T00:48:54;95167.81;;;2.77;100.00
44297;BME280;51842;47.450;8.654;2022-11-20T00:51:24;95160.72;;;2.77;100.00
44297;BME280;51842;47.450;8.654;2022-11-20T00:53:50;95171.81;;;2.80;100.00
44297;BME280;51842;47.450;8.654;2022-11-20T00:56:18;95172.38;;;2.82;100.00
44297;BME280;51842;47.450;8.654;2022-11-20T00:58:48;95172.97;;;2.84;100.00
44297;BME280;51842;47.450;8.654;2022-11-20T01:01:25;95175.94;;;2.87;100.00
44297;BME280;51842;47.450;8.654;2022-11-20T01:03:54;95182.00;;;2.88;100.00
44297;BME280;51842;47.450;8.654;2022-11-20T01:06:39;95178.81;;;2.86;100.00
44297;BME280;51842;47.450;8.654;2022-11-20T01:09:14;95178.13;;;2.90;100.00
44297;BME280;51842;47.450;8.654;2022-11-20T01:11:43;95177.91;;;2.92;100.00
44297;BME280;51842;47.450;8.654;2022-11-20T01:14:20;95177.06;;;2.91;100.00
44297;BME280;51842;47.450;8.654;2022-11-20T01:16:50;95191.06;;;2.92;100.00
44297;BME280;51842;47.450;8.654;2022-11-20T01:19:22;95188.28;;;2.87;100.00
44297;BME280;51842;47.450;8.654;2022-11-20T01:21:52;95192.31;;;2.89;100.00
44297;BME280;51842;47.450;8.654;2022-11-20T01:24:20;95184.41;;;2.89;100.00
44297;BME280;51842;47.450;8.654;2022-11-20T01:26:51;95186.59;;;2.92;100.00
44297;BME280;51842;47.450;8.654;2022-11-20T01:29:26;95183.28;;;2.97;100.00
44297;BME280;51842;47.450;8.654;2022-11-20T01:31:52;95187.88;;;3.01;100.00
44297;BME280;51842;47.450;8.654;2022-11-20T01:34:20;95187.19;;;3.06;100.00
44297;BME280;51842;47.450;8.654;2022-11-20T01:36:56;95189.94;;;3.11;100.00
44297;BME280;51842;47.450;8.654;2022-11-20T01:39:25;95190.50;;;3.13;100.00
44297;BME280;51842;47.450;8.654;2022-11-20T01:41:53;95191.66;;;3.17;100.00
44297;BME280;51842;47.450;8.654;2022-11-20T01:48:18;95202.53;;;3.21;100.00
44297;BME280;51842;47.450;8.654;2022-11-20T01:50:48;95200.50;;;3.23;100.00
44297;BME280;51842;47.450;8.654;2022-11-20T01:53:21;95198.88;;;3.22;100.00
44297;BME280;51842;47.450;8.654;2022-11-20T01:55:54;95198.19;;;3.27;100.00
44297;BME280;51842;47.450;8.654;2022-11-20T01:58:27;95198.31;;;3.32;100.00
44297;BME280;51842;47.450;8.654;2022-11-20T02:00:55;95202.31;;;3.34;100.00
44297;BME280;51842;47.450;8.654;2022-11-20T02:03:21;95208.97;;;3.37;100.00
44297;BME280;51842;47.450;8.654;2022-11-20T02:08:44;95207.72;;;3.39;100.00
44297;BME280;51842;47.450;8.654;2022-11-20T02:11:10;95209.31;;;3.40;100.00
44297;BME280;51842;47.450;8.654;2022-11-20T02:13:41;95204.63;;;3.42;100.00
44297;BME280;51842;47.450;8.654;2022-11-20T02:16:33;95198.91;;;3.45;100.00
44297;BME280;51842;47.450;8.654;2022-11-20T02:19:04;95208.63;;;3.45;100.00
44297;BME280;51842;47.450;8.654;2022-11-20T02:21:46;95200.72;;;3.45;100.00
44297;BME280;51842;47.450;8.654;2022-11-20T02:24:19;95200.50;;;3.46;100.00
44297;BME280;51842;47.450;8.654;2022-11-20T02:26:55;95207.34;;;3.47;100.00
44297;BME280;51842;47.450;8.654;2022-11-20T02:29:57;95200.03;;;3.50;100.00
44297;BME280;51842;47.450;8.654;2022-11-20T02:32:35;95206.91;;;3.51;100.00
44297;BME280;51842;47.450;8.654;2022-11-20T02:37:55;95205.97;;;3.57;100.00
44297;BME280;51842;47.450;8.654;2022-11-20T02:40:24;95213.66;;;3.58;100.00
44297;BME280;51842;47.450;8.654;2022-11-20T02:42:57;95205.53;;;3.60;100.00
44297;BME280;51842;47.450;8.654;2022-11-20T02:45:26;95214.47;;;3.59;100.00
44297;BME280;51842;47.450;8.654;2022-11-20T02:47:54;95209.19;;;3.59;100.00
44297;BME280;51842;47.450;8.654;2022-11-20T02:50:26;95201.50;;;3.57;100.00
44297;BME280;51842;47.450;8.654;2022-11-20T02:52:52;95199.47;;;3.59;100.00
44297;BME280;51842;47.450;8.654;2022-11-20T02:55:30;95194.97;;;3.60;100.00
44297;BME280;51842;47.450;8.654;2022-11-20T02:57:59;95196.81;;;3.59;100.00
44297;BME280;51842;47.450;8.654;2022-11-20T03:00:28;95196.03;;;3.59;100.00
44297;BME280;51842;47.450;8.654;2022-11-20T03:02:54;95192.81;;;3.57;100.00
44297;BME280;51842;47.450;8.654;2022-11-20T03:05:22;95193.84;;;3.56;100.00
44297;BME280;51842;47.450;8.654;2022-11-20T03:07:48;95190.97;;;3.57;100.00
44297;BME280;51842;47.450;8.654;2022-11-20T03:10:17;95192.34;;;3.60;100.00
44297;BME280;51842;47.450;8.654;2022-11-20T03:12:45;95194.78;;;3.61;100.00
44297;BME280;51842;47.450;8.654;2022-11-20T03:15:20;95195.09;;;3.65;100.00
44297;BME280;51842;47.450;8.654;2022-11-20T03:17:49;95195.69;;;3.67;100.00
44297;BME280;51842;47.450;8.654;2022-11-20T03:20:17;95199.69;;;3.69;100.00
44297;BME280;51842;47.450;8.654;2022-11-20T03:22:46;95192.34;;;3.71;100.00
44297;BME280;51842;47.450;8.654;2022-11-20T03:25:12;95184.44;;;3.71;100.00
44297;BME280;51842;47.450;8.654;2022-11-20T03:27:49;95193.41;;;3.70;100.00
44297;BME280;51842;47.450;8.654;2022-11-20T03:30:15;95187.88;;;3.72;100.00
44297;BME280;51842;47.450;8.654;2022-11-20T03:32:42;95191.31;;;3.72;100.00
44297;BME280;51842;47.450;8.654;2022-11-20T03:35:08;95198.66;;;3.70;100.00
44297;BME280;51842;47.450;8.654;2022-11-20T03:37:34;95189.97;;;3.70;99.94
44297;BME280;51842;47.450;8.654;2022-11-20T03:40:00;95189.97;;;3.70;100.00
44297;BME280;51842;47.450;8.654;2022-11-20T03:42:26;95195.22;;;3.70;100.00
44297;BME280;51842;47.450;8.654;2022-11-20T03:45:17;95198.88;;;3.69;100.00
44297;BME280;51842;47.450;8.654;2022-11-20T03:47:45;95198.09;;;3.68;100.00
44297;BME280;51842;47.450;8.654;2022-11-20T03:50:20;95190.19;;;3.68;100.00
44297;BME280;51842;47.450;8.654;2022-11-20T03:52:46;95196.25;;;3.69;100.00
44297;BME280;51842;47.450;8.654;2022-11-20T03:55:14;95207.25;;;3.66;100.00
44297;BME280;51842;47.450;8.654;2022-11-20T03:57:40;95199.78;;;3.63;100.00
44297;BME280;51842;47.450;8.654;2022-11-20T04:00:06;95208.28;;;3.65;100.00
44297;BME280;51842;47.450;8.654;2022-11-20T04:02:33;95206.44;;;3.65;100.00
44297;BME280;51842;47.450;8.654;2022-11-20T04:04:58;95209.06;;;3.65;100.00
44297;BME280;51842;47.450;8.654;2022-11-20T04:07:27;95203.00;;;3.65;100.00
44297;BME280;51842;47.450;8.654;2022-11-20T04:09:56;95203.22;;;3.63;100.00
44297;BME280;51842;47.450;8.654;2022-11-20T04:12:24;95204.06;;;3.64;100.00
44297;BME280;51842;47.450;8.654;2022-11-20T04:14:50;95205.06;;;3.63;100.00
44297;BME280;51842;47.450;8.654;2022-11-20T04:17:15;95208.75;;;3.62;100.00
44297;BME280;51842;47.450;8.654;2022-11-20T04:19:41;95204.25;;;3.62;100.00
44297;BME280;51842;47.450;8.654;2022-11-20T04:22:07;95209.53;;;3.62;100.00
44297;BME280;51842;47.450;8.654;2022-11-20T04:24:33;95211.13;;;3.63;100.00
44297;BME280;51842;47.450;8.654;2022-11-20T04:26:59;95209.53;;;3.62;100.00
44297;BME280;51842;47.450;8.654;2022-11-20T04:29:28;95211.38;;;3.62;100.00
44297;BME280;51842;47.450;8.654;2022-11-20T04:31:53;95205.53;;;3.60;100.00
44297;BME280;51842;47.450;8.654;2022-11-20T04:34:19;95210.56;;;3.61;100.00
44297;BME280;51842;47.450;8.654;2022-11-20T04:36:45;95205.97;;;3.57;100.00
44297;BME280;51842;47.450;8.654;2022-11-20T04:39:17;95214.69;;;3.57;100.00
44297;BME280;51842;47.450;8.654;2022-11-20T04:41:43;95212.53;;;3.54;100.00
44297;BME280;51842;47.450;8.654;2022-11-20T04:44:09;95216.88;;;3.48;100.00
44297;BME280;51842;47.450;8.654;2022-11-20T04:46:41;95211.81;;;3.47;100.00
44297;BME280;51842;47.450;8.654;2022-11-20T04:49:08;95204.63;;;3.42;100.00
44297;BME280;51842;47.450;8.654;2022-11-20T04:51:38;95200.28;;;3.36;100.00
44297;BME280;51842;47.450;8.654;2022-11-20T04:54:08;95204.47;;;3.25;100.00
44297;BME280;51842;47.450;8.654;2022-11-20T04:56:34;95201.97;;;3.19;100.00
44297;BME280;51842;47.450;8.654;2022-11-20T04:59:01;95199.69;;;3.11;100.00
44297;BME280;51842;47.450;8.654;2022-11-20T05:01:30;95191.88;;;3.04;100.00
44297;BME280;51842;47.450;8.654;2022-11-20T05:03:59;95195.19;;;2.99;100.00
44297;BME280;51842;47.450;8.654;2022-11-20T05:06:25;95191.28;;;2.90;100.00
44297;BME280;51842;47.450;8.654;2022-11-20T05:08:50;95195.84;;;2.83;100.00
44297;BME280;51842;47.450;8.654;2022-11-20T05:11:20;95199.38;;;2.77;100.00
44297;BME280;51842;47.450;8.654;2022-11-20T05:13:48;95198.88;;;2.68;100.00
44297;BME280;51842;47.450;8.654;2022-11-20T05:16:23;95196.78;;;2.59;100.00
44297;BME280;51842;47.450;8.654;2022-11-20T05:18:50;95193.91;;;2.48;100.00
44297;BME280;51842;47.450;8.654;2022-11-20T05:21:17;95194.66;;;2.37;100.00
44297;BME280;51842;47.450;8.654;2022-11-20T05:23:47;95201.81;;;2.30;100.00
44297;BME280;51842;47.450;8.654;2022-11-20T05:26:19;95198.94;;;2.20;100.00
44297;BME280;51842;47.450;8.654;2022-11-20T05:28:47;95198.53;;;2.16;100.00
44297;BME280;51842;47.450;8.654;2022-11-20T05:31:22;95210.97;;;2.09;100.00
44297;BME280;51842;47.450;8.654;2022-11-20T05:33:49;95205.94;;;2.07;100.00
44297;BME280;51842;47.450;8.654;2022-11-20T05:36:18;95210.16;;;2.08;100.00
44297;BME280;51842;47.450;8.654;2022-11-20T05:38:44;95214.19;;;2.11;100.00
44297;BME280;51842;47.450;8.654;2022-11-20T05:41:20;95210.09;;;2.15;100.00
44297;BME280;51842;47.450;8.654;2022-11-20T05:43:50;95212.50;;;2.17;100.00
44297;BME280;51842;47.450;8.654;2022-11-20T05:46:21;95221.75;;;2.19;100.00
44297;BME280;51842;47.450;8.654;2022-11-20T05:48:49;95210.44;;;2.19;100.00
44297;BME280;51842;47.450;8.654;2022-11-20T05:51:24;95209.06;;;2.16;100.00
44297;BME280;51842;47.450;8.654;2022-11-20T05:53:50;95214.91;;;2.18;100.00
44297;BME280;51842;47.450;8.654;2022-11-20T05:56:19;95218.91;;;2.21;100.00
44297;BME280;51842;47.450;8.654;2022-11-20T05:58:49;95216.66;;;2.24;100.00
44297;BME280;51842;47.450;8.654;2022-11-20T06:01:29;95217.81;;;2.28;100.00
44297;BME280;51842;47.450;8.654;2022-11-20T06:03:58;95217.94;;;2.34;100.00
44297;BME280;51842;47.450;8.654;2022-11-20T06:06:27;95225.53;;;2.42;100.00
44297;BME280;51842;47.450;8.654;2022-11-20T06:08:56;95221.00;;;2.49;100.00
44297;BME280;51842;47.450;8.654;2022-11-20T06:11:27;95229.16;;;2.59;100.00
44297;BME280;51842;47.450;8.654;2022-11-20T06:13:53;95228.25;;;2.65;100.00
44297;BME280;51842;47.450;8.654;2022-11-20T06:16:21;95230.44;;;2.68;100.00
44297;BME280;51842;47.450;8.654;2022-11-20T06:18:53;95234.00;;;2.74;100.00
44297;BME280;51842;47.450;8.654;2022-11-20T06:21:25;95235.41;;;2.76;100.00
44297;BME280;51842;47.450;8.654;2022-11-20T06:23:52;95236.53;;;2.81;100.00
44297;BME280;51842;47.450;8.654;2022-11-20T06:26:25;95240.31;;;2.85;100.00
44297;BME280;51842;47.450;8.654;2022-11-20T06:28:53;95233.59;;;2.89;100.00
44297;BME280;51842;47.450;8.654;2022-11-20T06:31:22;95236.59;;;2.92;100.00
44297;BME280;51842;47.450;8.654;2022-11-20T06:33:50;95235.91;;;2.97;100.00
44297;BME280;51842;47.450;8.654;2022-11-20T06:36:19;95234.44;;;3.01;100.00
44297;BME280;51842;47.450;8.654;2022-11-20T06:38:48;95236.38;;;3.06;100.00
44297;BME280;51842;47.450;8.654;2022-11-20T06:41:20;95237.31;;;3.11;100.00
44297;BME280;51842;47.450;8.654;2022-11-20T06:43:50;95239.25;;;3.16;100.00
44297;BME280;51842;47.450;8.654;2022-11-20T06:46:18;95234.59;;;3.18;100.00
44297;BME280;51842;47.450;8.654;2022-11-20T06:48:45;95238.16;;;3.23;100.00
44297;BME280;51842;47.450;8.654;2022-11-20T06:51:12;95233.44;;;3.25;100.00
44297;BME280;51842;47.450;8.654;2022-11-20T06:53:38;95232.19;;;3.28;100.00
44297;BME280;51842;47.450;8.654;2022-11-20T06:56:06;95241.25;;;3.32;100.00
44297;BME280;51842;47.450;8.654;2022-11-20T06:58:34;95249.72;;;3.34;100.00
44297;BME280;51842;47.450;8.654;2022-11-20T07:01:03;95251.09;;;3.37;100.00
44297;BME280;51842;47.450;8.654;2022-11-20T07:03:30;95242.41;;;3.36;100.00
44297;BME280;51842;47.450;8.654;2022-11-20T07:05:57;95253.72;;;3.37;100.00
44297;BME280;51842;47.450;8.654;2022-11-20T07:08:24;95255.09;;;3.39;100.00
44297;BME280;51842;47.450;8.654;2022-11-20T07:10:52;95251.22;;;3.42;100.00
44297;BME280;51842;47.450;8.654;2022-11-20T07:13:28;95259.13;;;3.42;100.00
44297;BME280;51842;47.450;8.654;2022-11-20T07:15:59;95260.13;;;3.41;99.62
44297;BME280;51842;47.450;8.654;2022-11-20T07:18:25;95265.97;;;3.43;99.36
44297;BME280;51842;47.450;8.654;2022-11-20T07:20:50;95265.75;;;3.44;99.26
44297;BME280;51842;47.450;8.654;2022-11-20T07:23:16;95274.00;;;3.48;99.60
44297;BME280;51842;47.450;8.654;2022-11-20T07:25:51;95276.19;;;3.51;99.50
44297;BME280;51842;47.450;8.654;2022-11-20T07:28:16;95279.38;;;3.53;99.48
44297;BME280;51842;47.450;8.654;2022-11-20T07:30:53;95278.13;;;3.56;99.05
44297;BME280;51842;47.450;8.654;2022-11-20T07:33:25;95274.00;;;3.60;98.70
44297;BME280;51842;47.450;8.654;2022-11-20T07:35:53;95279.41;;;3.65;98.14
44297;BME280;51842;47.450;8.654;2022-11-20T07:38:19;95277.91;;;3.69;97.97
44297;BME280;51842;47.450;8.654;2022-11-20T07:40:45;95275.84;;;3.71;97.43
44297;BME280;51842;47.450;8.654;2022-11-20T07:43:10;95281.47;;;3.75;97.16
44297;BME280;51842;47.450;8.654;2022-11-20T07:45:36;95283.97;;;3.81;97.31
44297;BME280;51842;47.450;8.654;2022-11-20T07:48:02;95289.72;;;3.90;97.73
44297;BME280;51842;47.450;8.654;2022-11-20T07:50:28;95285.91;;;3.98;97.47
44297;BME280;51842;47.450;8.654;2022-11-20T07:53:02;95285.72;;;3.99;95.21
44297;BME280;51842;47.450;8.654;2022-11-20T07:55:31;95277.22;;;4.09;96.08
44297;BME280;51842;47.450;8.654;2022-11-20T07:57:58;95276.63;;;4.18;95.70
44297;BME280;51842;47.450;8.654;2022-11-20T08:00:30;95271.81;;;4.27;95.48
44297;BME280;51842;47.450;8.654;2022-11-20T08:02:56;95278.53;;;4.35;94.44
44297;BME280;51842;47.450;8.654;2022-11-20T08:05:22;95283.13;;;4.39;93.64
44297;BME280;51842;47.450;8.654;2022-11-20T08:07:48;95283.47;;;4.43;93.07
44297;BME280;51842;47.450;8.654;2022-11-20T08:10:16;95288.63;;;4.50;93.10
44297;BME280;51842;47.450;8.654;2022-11-20T08:12:52;95289.53;;;4.55;92.75
44297;BME280;51842;47.450;8.654;2022-11-20T08:15:50;95294.09;;;4.60;92.51
44297;BME280;51842;47.450;8.654;2022-11-20T08:18:17;95295.25;;;4.64;91.84
44297;BME280;51842;47.450;8.654;2022-11-20T08:20:44;95288.78;;;4.72;91.71
44297;BME280;51842;47.450;8.654;2022-11-20T08:23:09;95294.72;;;4.79;91.87
44297;BME280;51842;47.450;8.654;2022-11-20T08:25:37;95293.91;;;4.78;90.27
44297;BME280;51842;47.450;8.654;2022-11-20T08:28:08;95296.41;;;4.85;90.21
44297;BME280;51842;47.450;8.654;2022-11-20T08:30:35;95289.28;;;4.85;90.27
44297;BME280;51842;47.450;8.654;2022-11-20T08:33:06;95287.13;;;4.82;89.52
44297;BME280;51842;47.450;8.654;2022-11-20T08:35:37;95295.50;;;4.79;89.86
44297;BME280;51842;47.450;8.654;2022-11-20T08:38:07;95297.59;;;4.77;89.16
44297;BME280;51842;47.450;8.654;2022-11-20T08:40:36;95283.94;;;4.80;88.89
44297;BME280;51842;47.450;8.654;2022-11-20T08:43:02;95287.47;;;4.86;88.87
44297;BME280;51842;47.450;8.654;2022-11-20T08:45:27;95294.00;;;4.95;88.75
44297;BME280;51842;47.450;8.654;2022-11-20T08:47:53;95305.34;;;4.96;88.23
44297;BME280;51842;47.450;8.654;2022-11-20T08:50:19;95300.53;;;4.93;87.26
44297;BME280;51842;47.450;8.654;2022-11-20T08:52:45;95302.47;;;4.97;87.79
44297;BME280;51842;47.450;8.654;2022-11-20T08:55:17;95307.69;;;5.09;87.21
44297;BME280;51842;47.450;8.654;2022-11-20T08:57:42;95310.63;;;5.24;86.54
44297;BME280;51842;47.450;8.654;2022-11-20T09:00:11;95308.88;;;5.30;84.99
44297;BME280;51842;47.450;8.654;2022-11-20T09:02:37;95312.06;;;5.32;85.77
44297;BME280;51842;47.450;8.654;2022-11-20T09:05:03;95309.34;;;5.27;84.49
44297;BME280;51842;47.450;8.654;2022-11-20T09:07:29;95311.31;;;5.20;83.72
44297;BME280;51842;47.450;8.654;2022-11-20T09:09:58;95307.06;;;5.19;84.25
44297;BME280;51842;47.450;8.654;2022-11-20T09:12:24;95309.88;;;5.29;84.61
44297;BME280;51842;47.450;8.654;2022-11-20T09:14:53;95308.94;;;5.35;84.22
44297;BME280;51842;47.450;8.654;2022-11-20T09:17:19;95303.84;;;5.45;83.11
44297;BME280;51842;47.450;8.654;2022-11-20T09:19:48;95301.44;;;5.61;83.38
44297;BME280;51842;47.450;8.654;2022-11-20T09:22:20;95302.09;;;5.68;81.12
44297;BME280;51842;47.450;8.654;2022-11-20T09:24:55;95298.41;;;5.69;80.03
44297;BME280;51842;47.450;8.654;2022-11-20T09:27:20;95296.38;;;5.76;80.81
44297;BME280;51842;47.450;8.654;2022-11-20T09:29:47;95299.13;;;5.81;80.38
44297;BME280;51842;47.450;8.654;2022-11-20T09:32:12;95300.88;;;5.92;79.55
44297;BME280;51842;47.450;8.654;2022-11-20T09:34:44;95303.72;;;6.02;80.54
44297;BME280;51842;47.450;8.654;2022-11-20T09:37:10;95299.78;;;6.05;78.43
44297;BME280;51842;47.450;8.654;2022-11-20T09:39:38;95302.81;;;5.97;77.18
44297;BME280;51842;47.450;8.654;2022-11-20T09:48:29;95309.03;;;6.24;76.46
44297;BME280;51842;47.450;8.654;2022-11-20T09:54:18;95309.66;;;6.32;76.49
44297;BME280;51842;47.450;8.654;2022-11-20T09:57:01;95313.19;;;6.37;76.90
44297;BME280;51842;47.450;8.654;2022-11-20T09:59:42;95310.06;;;6.40;76.04
44297;BME280;51842;47.450;8.654;2022-11-20T10:05:12;95305.75;;;6.56;74.76
44297;BME280;51842;47.450;8.654;2022-11-20T10:08:19;95307.59;;;6.56;74.56
44297;BME280;51842;47.450;8.654;2022-11-20T10:14:43;95302.53;;;6.76;74.01
44297;BME280;51842;47.450;8.654;2022-11-20T10:17:31;95308.44;;;7.05;73.96
44297;BME280;51842;47.450;8.654;2022-11-20T10:26:12;95303.50;;;6.92;73.50
44297;BME280;51842;47.450;8.654;2022-11-20T10:31:41;95302.00;;;7.23;72.25
44297;BME280;51842;47.450;8.654;2022-11-20T10:37:31;95298.56;;;7.55;71.76
44297;BME280;51842;47.450;8.654;2022-11-20T10:48:28;95292.41;;;7.44;69.91
44297;BME280;51842;47.450;8.654;2022-11-20T10:51:31;95287.66;;;7.46;69.52
44297;BME280;51842;47.450;8.654;2022-11-20T11:00:13;95281.28;;;7.47;69.61
44297;BME280;51842;47.450;8.654;2022-11-20T11:02:54;95277.56;;;7.43;70.22
44297;BME280;51842;47.450;8.654;2022-11-20T11:06:02;95278.09;;;7.45;70.93
44297;BME280;51842;47.450;8.654;2022-11-20T11:08:39;95269.97;;;7.57;71.19
44297;BME280;51842;47.450;8.654;2022-11-20T11:11:29;95259.44;;;7.62;69.94
44297;BME280;51842;47.450;8.654;2022-11-20T11:14:08;95262.28;;;7.55;71.44
44297;BME280;51842;47.450;8.654;2022-11-20T11:16:34;95260.66;;;7.54;70.21
44297;BME280;51842;47.450;8.654;2022-11-20T11:19:06;95262.09;;;7.67;71.36
44297;BME280;51842;47.450;8.654;2022-11-20T11:21:35;95253.91;;;7.69;70.33
44297;BME280;51842;47.450;8.654;2022-11-20T11:24:29;95248.38;;;7.75;69.41
44297;BME280;51842;47.450;8.654;2022-11-20T11:29:33;95234.94;;;7.87;69.49
44297;BME280;51842;47.450;8.654;2022-11-20T11:32:19;95241.16;;;7.71;68.82
44297;BME280;51842;47.450;8.654;2022-11-20T11:35:11;95233.59;;;7.84;68.04
44297;BME280;51842;47.450;8.654;2022-11-20T11:37:46;95222.81;;;8.01;68.77
44297;BME280;51842;47.450;8.654;2022-11-20T11:40:15;95227.97;;;8.18;68.24
44297;BME280;51842;47.450;8.654;2022-11-20T11:43:05;95222.91;;;8.17;66.94
44297;BME280;51842;47.450;8.654;2022-11-20T11:45:56;95213.31;;;8.10;67.11
44297;BME280;51842;47.450;8.654;2022-11-20T11:48:24;95221.03;;;8.17;67.13
44297;BME280;51842;47.450;8.654;2022-11-20T11:50:53;95213.91;;;8.23;67.95
44297;BME280;51842;47.450;8.654;2022-11-20T11:53:25;95216.69;;;8.43;67.39
44297;BME280;51842;47.450;8.654;2022-11-20T11:56:09;95209.06;;;8.62;64.64
44297;BME280;51842;47.450;8.654;2022-11-20T11:58:52;95212.84;;;8.92;63.32
44297;BME280;51842;47.450;8.654;2022-11-20T12:04:13;95196.91;;;9.84;59.71
44297;BME280;51842;47.450;8.654;2022-11-20T12:06:47;95195.25;;;10.18;57.51
44297;BME280;51842;47.450;8.654;2022-11-20T12:09:14;95189.81;;;10.49;56.87
44297;BME280;51842;47.450;8.654;2022-11-20T12:11:51;95188.00;;;10.94;56.86
44297;BME280;51842;47.450;8.654;2022-11-20T12:16:54;95168.56;;;10.44;55.38
44297;BME280;51842;47.450;8.654;2022-11-20T12:19:23;95174.22;;;10.17;56.36
44297;BME280;51842;47.450;8.654;2022-11-20T12:34:43;95164.34;;;10.28;56.55
44297;BME280;51842;47.450;8.654;2022-11-20T12:43:26;95150.41;;;10.96;53.38
44297;BME280;51842;47.450;8.654;2022-11-20T12:46:23;95150.91;;;11.03;54.01
44297;BME280;51842;47.450;8.654;2022-11-20T12:49:09;95145.63;;;10.53;53.66
44297;BME280;51842;47.450;8.654;2022-11-20T12:54:50;95147.69;;;9.96;55.63
44297;BME280;51842;47.450;8.654;2022-11-20T12:57:53;95142.16;;;9.67;56.83
44297;BME280;51842;47.450;8.654;2022-11-20T13:00:23;95143.28;;;9.15;56.79
44297;BME280;51842;47.450;8.654;2022-11-20T13:08:40;95138.50;;;8.97;59.37
44297;BME280;51842;47.450;8.654;2022-11-20T13:14:32;95132.53;;;9.87;58.20
44297;BME280;51842;47.450;8.654;2022-11-20T13:17:11;95126.91;;;10.04;58.04
44297;BME280;51842;47.450;8.654;2022-11-20T13:19:41;95117.94;;;9.74;56.45
44297;BME280;51842;47.450;8.654;2022-11-20T13:22:09;95118.25;;;9.52;58.67
44297;BME280;51842;47.450;8.654;2022-11-20T13:24:35;95120.66;;;9.54;58.41
44297;BME280;51842;47.450;8.654;2022-11-20T13:29:47;95118.81;;;9.23;59.23
44297;BME280;51842;47.450;8.654;2022-11-20T13:32:28;95120.16;;;9.16;59.60
44297;BME280;51842;47.450;8.654;2022-11-20T13:35:03;95116.94;;;9.09;60.46
44297;BME280;51842;47.450;8.654;2022-11-20T13:37:36;95110.84;;;8.98;60.16
44297;BME280;51842;47.450;8.654;2022-11-20T13:40:13;95105.53;;;8.83;61.82
44297;BME280;51842;47.450;8.654;2022-11-20T13:43:04;95104.97;;;8.70;60.46
44297;BME280;51842;47.450;8.654;2022-11-20T13:45:33;95103.41;;;8.59;62.07
44297;BME280;51842;47.450;8.654;2022-11-20T13:48:21;95101.78;;;8.58;61.39
44297;BME280;51842;47.450;8.654;2022-11-20T14:00:20;95098.81;;;8.39;60.13
44297;BME280;51842;47.450;8.654;2022-11-20T14:05:37;95093.25;;;8.41;60.83
44297;BME280;51842;47.450;8.654;2022-11-20T14:08:17;95081.88;;;8.50;60.12
44297;BME280;51842;47.450;8.654;2022-11-20T14:10:47;95076.03;;;8.64;60.03
44297;BME280;51842;47.450;8.654;2022-11-20T14:13:19;95066.22;;;8.59;59.86
44297;BME280;51842;47.450;8.654;2022-11-20T14:15:48;95060.91;;;8.44;58.77
44297;BME280;51842;47.450;8.654;2022-11-20T14:18:22;95069.91;;;8.43;60.46
44297;BME280;51842;47.450;8.654;2022-11-20T14:20:48;95064.81;;;8.36;59.16
44297;BME280;51842;47.450;8.654;2022-11-20T14:23:26;95064.53;;;8.22;60.04
44297;BME280;51842;47.450;8.654;2022-11-20T14:25:52;95059.50;;;8.31;59.96
44297;BME280;51842;47.450;8.654;2022-11-20T14:28:30;95061.44;;;8.51;59.99
44297;BME280;51842;47.450;8.654;2022-11-20T14:30:57;95059.84;;;8.60;59.33
44297;BME280;51842;47.450;8.654;2022-11-20T14:33:27;95060.38;;;8.62;60.50
44297;BME280;51842;47.450;8.654;2022-11-20T14:35:58;95064.63;;;8.58;59.72
44297;BME280;51842;47.450;8.654;2022-11-20T14:38:31;95068.31;;;8.52;60.50
44297;BME280;51842;47.450;8.654;2022-11-20T14:41:22;95061.19;;;8.52;60.09
44297;BME280;51842;47.450;8.654;2022-11-20T14:43:58;95062.22;;;8.51;60.23
44297;BME280;51842;47.450;8.654;2022-11-20T14:46:25;95060.34;;;8.52;60.04
44297;BME280;51842;47.450;8.654;2022-11-20T14:49:03;95046.03;;;8.63;60.38
44297;BME280;51842;47.450;8.654;2022-11-20T14:51:36;95047.09;;;8.52;59.15
44297;BME280;51842;47.450;8.654;2022-11-20T14:54:20;95045.50;;;8.61;58.94
44297;BME280;51842;47.450;8.654;2022-11-20T14:57:02;95048.94;;;8.51;58.58
44297;BME280;51842;47.450;8.654;2022-11-20T14:59:35;95044.16;;;8.48;58.48
44297;BME280;51842;47.450;8.654;2022-11-20T15:02:10;95047.03;;;8.31;57.79
44297;BME280;51842;47.450;8.654;2022-11-20T15:04:59;95042.00;;;8.35;58.46
44297;BME280;51842;47.450;8.654;2022-11-20T15:07:30;95035.88;;;8.29;57.42
44297;BME280;51842;47.450;8.654;2022-11-20T15:10:27;95038.81;;;8.33;58.13
44297;BME280;51842;47.450;8.654;2022-11-20T15:12:57;95032.19;;;8.30;58.14
44297;BME280;51842;47.450;8.654;2022-11-20T15:18:42;95034.25;;;8.13;58.48